Camarillo Information

FAA: CMA - ICAO: KCMA

Camarillo (Airport) Location

State California
County Ventura
City Camarillo
Camarillo (Airport) is 3 miles west of Camarillo, CA.
Latitude 34-12-49.5000N
Longitude 119-05-39.7000W
Elevation 76ft

Camarillo METARs

METAR KCMA 251655Z 00000KT 10SM CLR 10/05 A3000 RMK AO2 SLP167 T01000050
Altimeter 30.00"
Temperature 10.0°C (50.0°F)
Wind 0° at 0KT
Clouds Skies are clear.
Visibility 10.0mi
Time observed: 2022-01-25T16:55:00Z

Camarillo (Airport) Details

Status Operational
Activation December 1976
Ownership Public
Usage Public
Chart LOS ANGELES
ATC on-site Yes
Beacon schedule sunset-sunrise
Beacon color clear green

Camarillo (Airport) Contacts

Owner COUNTY OF VENTURA
Owner address 555 AIRPORT WAY, CAMARILLO, CA 93010-8544
Owner phone 805-388-4372
Manager JESSE LLANAS
Manager address 125 N. PARK AVE., CALIPATRIA, CA 92233
Manager phone 760-348-4144

Camarillo Radio Frequencies

Camarillo (Airport) Radio Frequencies

UNICOM 122.95
Common traffic advisory frequency (CTAF) 128.2